sensor_id;sensor_type;location;lat;lon;timestamp;P1;durP1;ratioP1;P2;durP2;ratioP2
51764;SDS011;37835;53.256;6.456;2023-11-22T00:01:47;17.42;;;10.07;;
51764;SDS011;37835;53.256;6.456;2023-11-22T00:04:14;14.50;;;10.48;;
51764;SDS011;37835;53.256;6.456;2023-11-22T00:06:39;12.15;;;9.70;;
51764;SDS011;37835;53.256;6.456;2023-11-22T00:09:05;17.33;;;10.07;;
51764;SDS011;37835;53.256;6.456;2023-11-22T00:11:32;14.38;;;10.13;;
51764;SDS011;37835;53.256;6.456;2023-11-22T00:13:57;13.90;;;10.38;;
51764;SDS011;37835;53.256;6.456;2023-11-22T00:16:23;13.02;;;9.32;;
51764;SDS011;37835;53.256;6.456;2023-11-22T00:18:48;16.15;;;10.50;;
51764;SDS011;37835;53.256;6.456;2023-11-22T00:21:14;13.65;;;10.23;;
51764;SDS011;37835;53.256;6.456;2023-11-22T00:23:40;13.23;;;10.27;;
51764;SDS011;37835;53.256;6.456;2023-11-22T00:26:06;14.88;;;10.77;;
51764;SDS011;37835;53.256;6.456;2023-11-22T00:28:32;21.88;;;11.15;;
51764;SDS011;37835;53.256;6.456;2023-11-22T00:30:57;15.50;;;10.90;;
51764;SDS011;37835;53.256;6.456;2023-11-22T00:33:23;14.73;;;10.60;;
51764;SDS011;37835;53.256;6.456;2023-11-22T00:35:49;14.30;;;10.23;;
51764;SDS011;37835;53.256;6.456;2023-11-22T00:38:15;14.32;;;10.00;;
51764;SDS011;37835;53.256;6.456;2023-11-22T00:40:41;15.50;;;10.40;;
51764;SDS011;37835;53.256;6.456;2023-11-22T00:43:07;15.25;;;10.20;;
51764;SDS011;37835;53.256;6.456;2023-11-22T00:45:33;15.27;;;9.75;;
51764;SDS011;37835;53.256;6.456;2023-11-22T00:48:00;14.75;;;10.93;;
51764;SDS011;37835;53.256;6.456;2023-11-22T00:50:26;15.70;;;10.40;;
51764;SDS011;37835;53.256;6.456;2023-11-22T00:52:51;13.25;;;9.73;;
51764;SDS011;37835;53.256;6.456;2023-11-22T00:55:17;17.35;;;10.02;;
51764;SDS011;37835;53.256;6.456;2023-11-22T00:57:42;13.48;;;9.70;;
51764;SDS011;37835;53.256;6.456;2023-11-22T01:00:08;14.68;;;10.15;;
51764;SDS011;37835;53.256;6.456;2023-11-22T01:02:36;17.35;;;10.93;;
51764;SDS011;37835;53.256;6.456;2023-11-22T01:05:08;13.68;;;10.27;;
51764;SDS011;37835;53.256;6.456;2023-11-22T01:07:37;18.77;;;10.27;;
51764;SDS011;37835;53.256;6.456;2023-11-22T01:10:03;18.33;;;10.93;;
51764;SDS011;37835;53.256;6.456;2023-11-22T01:12:30;14.27;;;10.20;;
51764;SDS011;37835;53.256;6.456;2023-11-22T01:14:56;14.75;;;10.15;;
51764;SDS011;37835;53.256;6.456;2023-11-22T01:17:22;17.98;;;10.63;;
51764;SDS011;37835;53.256;6.456;2023-11-22T01:19:48;15.68;;;10.02;;
51764;SDS011;37835;53.256;6.456;2023-11-22T01:22:15;17.73;;;11.07;;
51764;SDS011;37835;53.256;6.456;2023-11-22T01:24:42;18.52;;;10.40;;
51764;SDS011;37835;53.256;6.456;2023-11-22T01:27:08;17.35;;;10.23;;
51764;SDS011;37835;53.256;6.456;2023-11-22T01:29:34;16.05;;;10.10;;
51764;SDS011;37835;53.256;6.456;2023-11-22T01:32:00;15.93;;;10.25;;
51764;SDS011;37835;53.256;6.456;2023-11-22T01:34:25;15.20;;;9.65;;
51764;SDS011;37835;53.256;6.456;2023-11-22T01:36:51;12.95;;;10.35;;
51764;SDS011;37835;53.256;6.456;2023-11-22T01:39:17;16.80;;;10.40;;
51764;SDS011;37835;53.256;6.456;2023-11-22T01:41:45;14.82;;;10.02;;
51764;SDS011;37835;53.256;6.456;2023-11-22T01:44:11;13.02;;;9.25;;
51764;SDS011;37835;53.256;6.456;2023-11-22T01:46:37;15.60;;;10.20;;
51764;SDS011;37835;53.256;6.456;2023-11-22T01:49:03;15.98;;;10.23;;
51764;SDS011;37835;53.256;6.456;2023-11-22T01:51:29;15.45;;;10.07;;
51764;SDS011;37835;53.256;6.456;2023-11-22T01:53:55;15.77;;;10.77;;
51764;SDS011;37835;53.256;6.456;2023-11-22T01:56:23;14.60;;;9.80;;
51764;SDS011;37835;53.256;6.456;2023-11-22T01:58:51;14.00;;;9.98;;
51764;SDS011;37835;53.256;6.456;2023-11-22T02:01:19;13.48;;;10.15;;
51764;SDS011;37835;53.256;6.456;2023-11-22T02:03:45;14.38;;;9.55;;
51764;SDS011;37835;53.256;6.456;2023-11-22T02:06:13;17.23;;;9.80;;
51764;SDS011;37835;53.256;6.456;2023-11-22T02:08:41;15.02;;;9.70;;
51764;SDS011;37835;53.256;6.456;2023-11-22T02:11:08;13.90;;;9.60;;
51764;SDS011;37835;53.256;6.456;2023-11-22T02:13:33;13.23;;;9.00;;
51764;SDS011;37835;53.256;6.456;2023-11-22T02:15:59;16.17;;;10.18;;
51764;SDS011;37835;53.256;6.456;2023-11-22T02:18:26;13.20;;;9.93;;
51764;SDS011;37835;53.256;6.456;2023-11-22T02:20:52;18.27;;;10.40;;
51764;SDS011;37835;53.256;6.456;2023-11-22T02:23:18;13.20;;;9.25;;
51764;SDS011;37835;53.256;6.456;2023-11-22T02:25:44;16.17;;;10.30;;
51764;SDS011;37835;53.256;6.456;2023-11-22T02:28:10;13.43;;;9.18;;
51764;SDS011;37835;53.256;6.456;2023-11-22T02:30:37;15.63;;;9.90;;
51764;SDS011;37835;53.256;6.456;2023-11-22T02:33:02;15.35;;;10.82;;
51764;SDS011;37835;53.256;6.456;2023-11-22T02:35:29;15.80;;;10.68;;
51764;SDS011;37835;53.256;6.456;2023-11-22T02:37:57;17.83;;;11.60;;
51764;SDS011;37835;53.256;6.456;2023-11-22T02:40:22;14.05;;;10.07;;
51764;SDS011;37835;53.256;6.456;2023-11-22T02:42:49;15.88;;;11.00;;
51764;SDS011;37835;53.256;6.456;2023-11-22T02:45:16;16.42;;;10.65;;
51764;SDS011;37835;53.256;6.456;2023-11-22T02:47:43;14.65;;;10.60;;
51764;SDS011;37835;53.256;6.456;2023-11-22T02:50:15;13.82;;;10.25;;
51764;SDS011;37835;53.256;6.456;2023-11-22T02:52:41;17.67;;;10.57;;
51764;SDS011;37835;53.256;6.456;2023-11-22T02:55:07;13.88;;;10.68;;
51764;SDS011;37835;53.256;6.456;2023-11-22T02:57:34;15.32;;;10.60;;
51764;SDS011;37835;53.256;6.456;2023-11-22T03:00:01;17.75;;;10.73;;
51764;SDS011;37835;53.256;6.456;2023-11-22T03:02:29;15.90;;;10.70;;
51764;SDS011;37835;53.256;6.456;2023-11-22T03:04:57;16.17;;;10.90;;
51764;SDS011;37835;53.256;6.456;2023-11-22T03:07:23;15.82;;;10.90;;
51764;SDS011;37835;53.256;6.456;2023-11-22T03:09:50;18.48;;;10.68;;
51764;SDS011;37835;53.256;6.456;2023-11-22T03:12:16;20.05;;;11.60;;
51764;SDS011;37835;53.256;6.456;2023-11-22T03:14:43;16.33;;;10.95;;
51764;SDS011;37835;53.256;6.456;2023-11-22T03:17:08;16.55;;;11.15;;
51764;SDS011;37835;53.256;6.456;2023-11-22T03:19:34;19.58;;;12.00;;
51764;SDS011;37835;53.256;6.456;2023-11-22T03:22:00;15.23;;;10.50;;
51764;SDS011;37835;53.256;6.456;2023-11-22T03:24:28;16.42;;;10.60;;
51764;SDS011;37835;53.256;6.456;2023-11-22T03:26:55;19.45;;;11.23;;
51764;SDS011;37835;53.256;6.456;2023-11-22T03:29:23;17.95;;;10.68;;
51764;SDS011;37835;53.256;6.456;2023-11-22T03:31:50;18.95;;;10.90;;
51764;SDS011;37835;53.256;6.456;2023-11-22T03:34:16;17.20;;;10.98;;
51764;SDS011;37835;53.256;6.456;2023-11-22T03:36:42;15.85;;;10.65;;
51764;SDS011;37835;53.256;6.456;2023-11-22T03:39:08;17.30;;;10.73;;
51764;SDS011;37835;53.256;6.456;2023-11-22T03:41:35;16.50;;;10.93;;
51764;SDS011;37835;53.256;6.456;2023-11-22T03:44:02;18.02;;;10.68;;
51764;SDS011;37835;53.256;6.456;2023-11-22T03:46:29;17.48;;;11.45;;
51764;SDS011;37835;53.256;6.456;2023-11-22T03:48:55;17.23;;;10.50;;
51764;SDS011;37835;53.256;6.456;2023-11-22T03:51:21;16.58;;;10.65;;
51764;SDS011;37835;53.256;6.456;2023-11-22T03:53:46;20.05;;;10.93;;
51764;SDS011;37835;53.256;6.456;2023-11-22T03:56:12;19.63;;;11.73;;
51764;SDS011;37835;53.256;6.456;2023-11-22T03:58:39;16.25;;;10.50;;
51764;SDS011;37835;53.256;6.456;2023-11-22T04:01:05;18.80;;;11.40;;
51764;SDS011;37835;53.256;6.456;2023-11-22T04:03:31;21.85;;;11.27;;
51764;SDS011;37835;53.256;6.456;2023-11-22T04:05:57;16.15;;;11.18;;
51764;SDS011;37835;53.256;6.456;2023-11-22T04:08:23;17.08;;;11.50;;
51764;SDS011;37835;53.256;6.456;2023-11-22T04:10:49;24.05;;;11.15;;
51764;SDS011;37835;53.256;6.456;2023-11-22T04:13:14;17.45;;;11.00;;
51764;SDS011;37835;53.256;6.456;2023-11-22T04:15:40;19.88;;;11.18;;
51764;SDS011;37835;53.256;6.456;2023-11-22T04:18:05;18.27;;;10.48;;
51764;SDS011;37835;53.256;6.456;2023-11-22T04:20:31;16.58;;;11.15;;
51764;SDS011;37835;53.256;6.456;2023-11-22T04:22:57;16.08;;;10.40;;
51764;SDS011;37835;53.256;6.456;2023-11-22T04:25:22;15.90;;;10.70;;
51764;SDS011;37835;53.256;6.456;2023-11-22T04:27:48;18.10;;;11.57;;
51764;SDS011;37835;53.256;6.456;2023-11-22T04:30:14;17.77;;;10.80;;
51764;SDS011;37835;53.256;6.456;2023-11-22T04:32:42;14.70;;;9.80;;
51764;SDS011;37835;53.256;6.456;2023-11-22T04:35:08;18.17;;;11.65;;
51764;SDS011;37835;53.256;6.456;2023-11-22T04:37:35;18.35;;;10.77;;
51764;SDS011;37835;53.256;6.456;2023-11-22T04:40:01;19.42;;;11.63;;
51764;SDS011;37835;53.256;6.456;2023-11-22T04:42:28;21.23;;;11.20;;
51764;SDS011;37835;53.256;6.456;2023-11-22T04:44:54;18.63;;;10.65;;
51764;SDS011;37835;53.256;6.456;2023-11-22T04:47:20;17.95;;;10.43;;
51764;SDS011;37835;53.256;6.456;2023-11-22T04:49:48;18.38;;;11.48;;
51764;SDS011;37835;53.256;6.456;2023-11-22T04:52:14;20.65;;;11.73;;
51764;SDS011;37835;53.256;6.456;2023-11-22T04:54:40;17.52;;;11.48;;
51764;SDS011;37835;53.256;6.456;2023-11-22T04:57:05;17.42;;;11.07;;
51764;SDS011;37835;53.256;6.456;2023-11-22T04:59:31;29.17;;;11.30;;
51764;SDS011;37835;53.256;6.456;2023-11-22T05:01:57;16.92;;;11.10;;
51764;SDS011;37835;53.256;6.456;2023-11-22T05:04:22;18.13;;;11.73;;
51764;SDS011;37835;53.256;6.456;2023-11-22T05:06:48;19.33;;;12.05;;
51764;SDS011;37835;53.256;6.456;2023-11-22T05:09:14;19.70;;;12.02;;
51764;SDS011;37835;53.256;6.456;2023-11-22T05:11:40;21.40;;;12.57;;
51764;SDS011;37835;53.256;6.456;2023-11-22T05:14:06;19.80;;;12.05;;
51764;SDS011;37835;53.256;6.456;2023-11-22T05:16:32;20.90;;;12.68;;
51764;SDS011;37835;53.256;6.456;2023-11-22T05:18:58;25.17;;;14.23;;
51764;SDS011;37835;53.256;6.456;2023-11-22T05:21:25;22.88;;;13.20;;
51764;SDS011;37835;53.256;6.456;2023-11-22T05:23:51;20.55;;;12.80;;
51764;SDS011;37835;53.256;6.456;2023-11-22T05:26:19;19.98;;;11.90;;
51764;SDS011;37835;53.256;6.456;2023-11-22T05:28:45;24.48;;;13.25;;
51764;SDS011;37835;53.256;6.456;2023-11-22T05:31:12;22.17;;;13.27;;
51764;SDS011;37835;53.256;6.456;2023-11-22T05:33:39;25.42;;;13.27;;
51764;SDS011;37835;53.256;6.456;2023-11-22T05:36:05;25.55;;;12.95;;
51764;SDS011;37835;53.256;6.456;2023-11-22T05:38:32;23.90;;;14.13;;
51764;SDS011;37835;53.256;6.456;2023-11-22T05:41:00;23.40;;;13.80;;
51764;SDS011;37835;53.256;6.456;2023-11-22T05:43:26;23.05;;;13.25;;
51764;SDS011;37835;53.256;6.456;2023-11-22T05:45:52;24.08;;;14.60;;
51764;SDS011;37835;53.256;6.456;2023-11-22T05:48:17;25.27;;;14.02;;
51764;SDS011;37835;53.256;6.456;2023-11-22T05:50:44;22.17;;;12.73;;
51764;SDS011;37835;53.256;6.456;2023-11-22T05:53:10;23.00;;;13.35;;
51764;SDS011;37835;53.256;6.456;2023-11-22T05:55:36;25.05;;;13.85;;
51764;SDS011;37835;53.256;6.456;2023-11-22T05:58:03;25.48;;;13.40;;
51764;SDS011;37835;53.256;6.456;2023-11-22T06:00:28;24.45;;;14.10;;
51764;SDS011;37835;53.256;6.456;2023-11-22T06:02:54;23.30;;;13.95;;
51764;SDS011;37835;53.256;6.456;2023-11-22T06:05:20;28.27;;;15.30;;
51764;SDS011;37835;53.256;6.456;2023-11-22T06:07:46;24.42;;;14.63;;
51764;SDS011;37835;53.256;6.456;2023-11-22T06:10:12;26.48;;;14.88;;
51764;SDS011;37835;53.256;6.456;2023-11-22T06:12:39;29.27;;;15.63;;
51764;SDS011;37835;53.256;6.456;2023-11-22T06:15:05;27.13;;;14.85;;
51764;SDS011;37835;53.256;6.456;2023-11-22T06:17:31;30.58;;;15.25;;
51764;SDS011;37835;53.256;6.456;2023-11-22T06:19:57;28.35;;;16.02;;
51764;SDS011;37835;53.256;6.456;2023-11-22T06:22:22;32.35;;;16.08;;
51764;SDS011;37835;53.256;6.456;2023-11-22T06:24:48;29.60;;;15.73;;
51764;SDS011;37835;53.256;6.456;2023-11-22T06:27:14;28.48;;;16.48;;
51764;SDS011;37835;53.256;6.456;2023-11-22T06:29:42;30.77;;;16.67;;
51764;SDS011;37835;53.256;6.456;2023-11-22T06:32:09;30.15;;;16.20;;
51764;SDS011;37835;53.256;6.456;2023-11-22T06:34:35;31.77;;;16.83;;
51764;SDS011;37835;53.256;6.456;2023-11-22T06:37:01;27.50;;;15.85;;
51764;SDS011;37835;53.256;6.456;2023-11-22T06:39:27;26.23;;;16.75;;
51764;SDS011;37835;53.256;6.456;2023-11-22T06:41:53;32.67;;;17.80;;
51764;SDS011;37835;53.256;6.456;2023-11-22T06:44:18;30.80;;;17.63;;
51764;SDS011;37835;53.256;6.456;2023-11-22T06:46:44;33.13;;;16.50;;
51764;SDS011;37835;53.256;6.456;2023-11-22T06:49:09;34.95;;;17.42;;
51764;SDS011;37835;53.256;6.456;2023-11-22T06:51:35;32.42;;;17.52;;
51764;SDS011;37835;53.256;6.456;2023-11-22T06:54:02;32.83;;;17.05;;
51764;SDS011;37835;53.256;6.456;2023-11-22T06:56:28;35.65;;;18.38;;
51764;SDS011;37835;53.256;6.456;2023-11-22T06:58:54;33.67;;;17.05;;
51764;SDS011;37835;53.256;6.456;2023-11-22T07:01:22;31.75;;;18.33;;
51764;SDS011;37835;53.256;6.456;2023-11-22T07:03:50;31.73;;;16.73;;
51764;SDS011;37835;53.256;6.456;2023-11-22T07:06:17;34.67;;;17.02;;
51764;SDS011;37835;53.256;6.456;2023-11-22T07:08:44;31.83;;;17.92;;
51764;SDS011;37835;53.256;6.456;2023-11-22T07:11:10;32.70;;;18.10;;
51764;SDS011;37835;53.256;6.456;2023-11-22T07:13:36;32.08;;;17.58;;
51764;SDS011;37835;53.256;6.456;2023-11-22T07:16:03;31.30;;;17.35;;
51764;SDS011;37835;53.256;6.456;2023-11-22T07:18:29;32.72;;;18.58;;
51764;SDS011;37835;53.256;6.456;2023-11-22T07:20:57;28.33;;;16.80;;
51764;SDS011;37835;53.256;6.456;2023-11-22T07:23:23;33.63;;;17.90;;
51764;SDS011;37835;53.256;6.456;2023-11-22T07:25:52;33.92;;;17.52;;
51764;SDS011;37835;53.256;6.456;2023-11-22T07:28:19;36.13;;;18.33;;
51764;SDS011;37835;53.256;6.456;2023-11-22T07:30:45;34.45;;;18.67;;
51764;SDS011;37835;53.256;6.456;2023-11-22T07:33:10;33.63;;;17.77;;
51764;SDS011;37835;53.256;6.456;2023-11-22T07:35:36;27.63;;;16.77;;
51764;SDS011;37835;53.256;6.456;2023-11-22T07:38:02;37.22;;;19.25;;
51764;SDS011;37835;53.256;6.456;2023-11-22T07:40:28;30.75;;;17.75;;
51764;SDS011;37835;53.256;6.456;2023-11-22T07:42:54;31.33;;;16.83;;
51764;SDS011;37835;53.256;6.456;2023-11-22T07:45:20;33.92;;;18.48;;
51764;SDS011;37835;53.256;6.456;2023-11-22T07:47:45;32.45;;;17.60;;
51764;SDS011;37835;53.256;6.456;2023-11-22T07:50:12;35.00;;;19.38;;
51764;SDS011;37835;53.256;6.456;2023-11-22T07:52:38;35.78;;;18.63;;
51764;SDS011;37835;53.256;6.456;2023-11-22T07:55:05;36.03;;;18.70;;
51764;SDS011;37835;53.256;6.456;2023-11-22T07:57:35;35.85;;;19.60;;
51764;SDS011;37835;53.256;6.456;2023-11-22T08:00:00;31.98;;;18.55;;
51764;SDS011;37835;53.256;6.456;2023-11-22T08:02:29;35.10;;;19.92;;
51764;SDS011;37835;53.256;6.456;2023-11-22T08:04:55;42.05;;;20.67;;
51764;SDS011;37835;53.256;6.456;2023-11-22T08:07:21;37.28;;;19.52;;
51764;SDS011;37835;53.256;6.456;2023-11-22T08:09:48;37.03;;;19.80;;
51764;SDS011;37835;53.256;6.456;2023-11-22T08:12:14;35.65;;;19.63;;
51764;SDS011;37835;53.256;6.456;2023-11-22T08:14:39;36.10;;;20.13;;
51764;SDS011;37835;53.256;6.456;2023-11-22T08:17:09;32.55;;;19.30;;
51764;SDS011;37835;53.256;6.456;2023-11-22T08:19:38;35.83;;;19.50;;
51764;SDS011;37835;53.256;6.456;2023-11-22T08:22:05;34.85;;;19.73;;
51764;SDS011;37835;53.256;6.456;2023-11-22T08:24:31;38.08;;;19.27;;
51764;SDS011;37835;53.256;6.456;2023-11-22T08:26:57;39.53;;;21.02;;
51764;SDS011;37835;53.256;6.456;2023-11-22T08:29:23;35.17;;;20.02;;
51764;SDS011;37835;53.256;6.456;2023-11-22T08:31:49;35.30;;;19.77;;
51764;SDS011;37835;53.256;6.456;2023-11-22T08:34:16;35.13;;;19.67;;
51764;SDS011;37835;53.256;6.456;2023-11-22T08:36:41;30.85;;;19.15;;
51764;SDS011;37835;53.256;6.456;2023-11-22T08:39:07;34.50;;;19.33;;
51764;SDS011;37835;53.256;6.456;2023-11-22T08:41:33;33.72;;;20.45;;
51764;SDS011;37835;53.256;6.456;2023-11-22T08:43:59;36.40;;;20.42;;
51764;SDS011;37835;53.256;6.456;2023-11-22T08:46:25;38.85;;;21.63;;
51764;SDS011;37835;53.256;6.456;2023-11-22T08:48:51;36.83;;;20.88;;
51764;SDS011;37835;53.256;6.456;2023-11-22T08:51:17;44.38;;;21.02;;
51764;SDS011;37835;53.256;6.456;2023-11-22T08:53:43;36.65;;;20.05;;
51764;SDS011;37835;53.256;6.456;2023-11-22T08:56:09;35.17;;;21.02;;
51764;SDS011;37835;53.256;6.456;2023-11-22T08:58:36;36.83;;;21.48;;
51764;SDS011;37835;53.256;6.456;2023-11-22T09:01:03;36.75;;;21.30;;
51764;SDS011;37835;53.256;6.456;2023-11-22T09:03:30;35.35;;;20.42;;
51764;SDS011;37835;53.256;6.456;2023-11-22T09:05:56;38.95;;;21.67;;
51764;SDS011;37835;53.256;6.456;2023-11-22T09:08:22;39.80;;;20.90;;
51764;SDS011;37835;53.256;6.456;2023-11-22T09:10:48;36.70;;;21.08;;
51764;SDS011;37835;53.256;6.456;2023-11-22T09:13:15;37.47;;;20.58;;
51764;SDS011;37835;53.256;6.456;2023-11-22T09:15:41;37.15;;;19.63;;
51764;SDS011;37835;53.256;6.456;2023-11-22T09:18:09;37.30;;;19.83;;
51764;SDS011;37835;53.256;6.456;2023-11-22T09:20:35;33.60;;;19.77;;
51764;SDS011;37835;53.256;6.456;2023-11-22T09:23:01;35.50;;;20.48;;
51764;SDS011;37835;53.256;6.456;2023-11-22T09:25:29;34.08;;;19.40;;
51764;SDS011;37835;53.256;6.456;2023-11-22T09:27:56;31.55;;;19.15;;
51764;SDS011;37835;53.256;6.456;2023-11-22T09:30:26;37.53;;;19.90;;
51764;SDS011;37835;53.256;6.456;2023-11-22T09:33:00;35.83;;;19.73;;
51764;SDS011;37835;53.256;6.456;2023-11-22T09:35:28;32.63;;;19.38;;
51764;SDS011;37835;53.256;6.456;2023-11-22T09:37:55;37.80;;;19.58;;
51764;SDS011;37835;53.256;6.456;2023-11-22T09:40:24;32.88;;;18.25;;
51764;SDS011;37835;53.256;6.456;2023-11-22T09:42:52;32.53;;;19.15;;
51764;SDS011;37835;53.256;6.456;2023-11-22T09:45:19;34.17;;;18.50;;
51764;SDS011;37835;53.256;6.456;2023-11-22T09:47:45;29.40;;;18.90;;
51764;SDS011;37835;53.256;6.456;2023-11-22T09:50:14;31.92;;;19.13;;
51764;SDS011;37835;53.256;6.456;2023-11-22T09:52:51;31.17;;;18.27;;
51764;SDS011;37835;53.256;6.456;2023-11-22T09:55:22;33.72;;;19.67;;
51764;SDS011;37835;53.256;6.456;2023-11-22T09:57:53;33.28;;;19.00;;
51764;SDS011;37835;53.256;6.456;2023-11-22T10:00:20;32.92;;;18.30;;
51764;SDS011;37835;53.256;6.456;2023-11-22T10:02:47;33.95;;;19.13;;
51764;SDS011;37835;53.256;6.456;2023-11-22T10:05:13;32.85;;;18.52;;
51764;SDS011;37835;53.256;6.456;2023-11-22T10:07:39;30.73;;;18.20;;
51764;SDS011;37835;53.256;6.456;2023-11-22T10:10:05;28.33;;;17.73;;
51764;SDS011;37835;53.256;6.456;2023-11-22T10:12:31;29.63;;;18.52;;
51764;SDS011;37835;53.256;6.456;2023-11-22T10:15:14;33.15;;;18.70;;
51764;SDS011;37835;53.256;6.456;2023-11-22T10:17:41;29.17;;;18.17;;
51764;SDS011;37835;53.256;6.456;2023-11-22T10:20:23;34.30;;;18.33;;
51764;SDS011;37835;53.256;6.456;2023-11-22T10:22:51;28.60;;;17.50;;
51764;SDS011;37835;53.256;6.456;2023-11-22T10:25:17;30.70;;;17.63;;
51764;SDS011;37835;53.256;6.456;2023-11-22T10:27:46;27.50;;;17.88;;
51764;SDS011;37835;53.256;6.456;2023-11-22T10:30:12;30.85;;;17.67;;
51764;SDS011;37835;53.256;6.456;2023-11-22T10:32:40;28.15;;;17.30;;
51764;SDS011;37835;53.256;6.456;2023-11-22T10:35:06;31.70;;;17.75;;
51764;SDS011;37835;53.256;6.456;2023-11-22T10:37:33;32.78;;;18.35;;
51764;SDS011;37835;53.256;6.456;2023-11-22T10:39:59;26.75;;;16.60;;
51764;SDS011;37835;53.256;6.456;2023-11-22T10:42:25;24.80;;;16.60;;
51764;SDS011;37835;53.256;6.456;2023-11-22T10:44:52;23.42;;;15.02;;
51764;SDS011;37835;53.256;6.456;2023-11-22T10:47:27;25.58;;;16.13;;
51764;SDS011;37835;53.256;6.456;2023-11-22T10:49:55;28.27;;;15.50;;
51764;SDS011;37835;53.256;6.456;2023-11-22T10:52:21;22.75;;;15.45;;
51764;SDS011;37835;53.256;6.456;2023-11-22T10:54:51;24.45;;;15.15;;
51764;SDS011;37835;53.256;6.456;2023-11-22T10:57:24;23.95;;;15.50;;
51764;SDS011;37835;53.256;6.456;2023-11-22T10:59:53;24.65;;;14.82;;
51764;SDS011;37835;53.256;6.456;2023-11-22T11:02:21;28.55;;;14.77;;
51764;SDS011;37835;53.256;6.456;2023-11-22T11:04:51;19.67;;;13.98;;
51764;SDS011;37835;53.256;6.456;2023-11-22T11:07:24;20.40;;;13.98;;
51764;SDS011;37835;53.256;6.456;2023-11-22T11:09:53;20.08;;;13.30;;
51764;SDS011;37835;53.256;6.456;2023-11-22T11:12:22;19.15;;;12.93;;
51764;SDS011;37835;53.256;6.456;2023-11-22T11:14:48;19.23;;;13.27;;
51764;SDS011;37835;53.256;6.456;2023-11-22T11:17:15;19.30;;;13.25;;
51764;SDS011;37835;53.256;6.456;2023-11-22T11:19:42;19.50;;;12.80;;
51764;SDS011;37835;53.256;6.456;2023-11-22T11:22:08;18.08;;;12.23;;
51764;SDS011;37835;53.256;6.456;2023-11-22T11:24:40;16.42;;;11.45;;
51764;SDS011;37835;53.256;6.456;2023-11-22T11:27:09;20.35;;;11.70;;
51764;SDS011;37835;53.256;6.456;2023-11-22T11:29:36;18.98;;;11.35;;
51764;SDS011;37835;53.256;6.456;2023-11-22T11:32:09;15.93;;;11.18;;
51764;SDS011;37835;53.256;6.456;2023-11-22T11:34:46;15.60;;;10.70;;
51764;SDS011;37835;53.256;6.456;2023-11-22T11:37:14;13.88;;;10.48;;
51764;SDS011;37835;53.256;6.456;2023-11-22T11:39:40;12.82;;;10.07;;
51764;SDS011;37835;53.256;6.456;2023-11-22T11:42:12;14.40;;;10.25;;
51764;SDS011;37835;53.256;6.456;2023-11-22T11:44:50;14.85;;;10.30;;
51764;SDS011;37835;53.256;6.456;2023-11-22T11:47:22;14.88;;;11.20;;
51764;SDS011;37835;53.256;6.456;2023-11-22T11:49:51;14.52;;;10.18;;
51764;SDS011;37835;53.256;6.456;2023-11-22T11:52:16;15.32;;;10.30;;
51764;SDS011;37835;53.256;6.456;2023-11-22T11:54:42;13.55;;;10.07;;
51764;SDS011;37835;53.256;6.456;2023-11-22T11:57:09;14.68;;;10.60;;
51764;SDS011;37835;53.256;6.456;2023-11-22T11:59:35;12.60;;;9.57;;
51764;SDS011;37835;53.256;6.456;2023-11-22T12:02:01;13.00;;;9.63;;
51764;SDS011;37835;53.256;6.456;2023-11-22T12:04:30;11.98;;;9.30;;
51764;SDS011;37835;53.256;6.456;2023-11-22T12:06:56;13.82;;;9.18;;
51764;SDS011;37835;53.256;6.456;2023-11-22T12:09:23;17.17;;;10.00;;
51764;SDS011;37835;53.256;6.456;2023-11-22T12:11:53;13.82;;;9.35;;
51764;SDS011;37835;53.256;6.456;2023-11-22T12:14:22;12.10;;;9.50;;
51764;SDS011;37835;53.256;6.456;2023-11-22T12:16:52;12.60;;;9.43;;
51764;SDS011;37835;53.256;6.456;2023-11-22T12:19:28;13.23;;;9.63;;
51764;SDS011;37835;53.256;6.456;2023-11-22T12:21:58;14.88;;;10.45;;
51764;SDS011;37835;53.256;6.456;2023-11-22T12:24:24;13.63;;;10.32;;
51764;SDS011;37835;53.256;6.456;2023-11-22T12:26:50;13.60;;;9.10;;
51764;SDS011;37835;53.256;6.456;2023-11-22T12:29:16;14.05;;;9.93;;
51764;SDS011;37835;53.256;6.456;2023-11-22T12:31:48;13.88;;;10.15;;
51764;SDS011;37835;53.256;6.456;2023-11-22T12:34:20;13.32;;;10.45;;
51764;SDS011;37835;53.256;6.456;2023-11-22T12:36:47;14.13;;;9.65;;
51764;SDS011;37835;53.256;6.456;2023-11-22T12:39:14;15.48;;;10.25;;
51764;SDS011;37835;53.256;6.456;2023-11-22T12:41:43;14.70;;;9.60;;
51764;SDS011;37835;53.256;6.456;2023-11-22T12:44:13;15.02;;;9.50;;
51764;SDS011;37835;53.256;6.456;2023-11-22T12:46:48;11.50;;;9.32;;
51764;SDS011;37835;53.256;6.456;2023-11-22T12:49:20;16.17;;;9.77;;
51764;SDS011;37835;53.256;6.456;2023-11-22T12:51:51;12.25;;;9.05;;
51764;SDS011;37835;53.256;6.456;2023-11-22T12:54:17;13.73;;;9.48;;
51764;SDS011;37835;53.256;6.456;2023-11-22T12:56:47;12.77;;;9.45;;
51764;SDS011;37835;53.256;6.456;2023-11-22T12:59:14;13.63;;;9.93;;
51764;SDS011;37835;53.256;6.456;2023-11-22T13:01:40;13.07;;;9.77;;
51764;SDS011;37835;53.256;6.456;2023-11-22T13:04:06;12.35;;;9.63;;
51764;SDS011;37835;53.256;6.456;2023-11-22T13:06:32;13.32;;;9.38;;
51764;SDS011;37835;53.256;6.456;2023-11-22T13:08:57;13.32;;;9.93;;
51764;SDS011;37835;53.256;6.456;2023-11-22T13:11:23;12.32;;;9.60;;
51764;SDS011;37835;53.256;6.456;2023-11-22T13:13:49;12.40;;;9.95;;
51764;SDS011;37835;53.256;6.456;2023-11-22T13:16:15;15.05;;;10.48;;
51764;SDS011;37835;53.256;6.456;2023-11-22T13:18:44;13.90;;;9.88;;
51764;SDS011;37835;53.256;6.456;2023-11-22T13:21:09;12.73;;;9.80;;
51764;SDS011;37835;53.256;6.456;2023-11-22T13:23:35;12.70;;;9.80;;
51764;SDS011;37835;53.256;6.456;2023-11-22T13:26:01;13.70;;;10.45;;
51764;SDS011;37835;53.256;6.456;2023-11-22T13:28:27;13.45;;;10.10;;
51764;SDS011;37835;53.256;6.456;2023-11-22T13:30:52;12.75;;;10.45;;
51764;SDS011;37835;53.256;6.456;2023-11-22T13:33:20;12.98;;;10.00;;
51764;SDS011;37835;53.256;6.456;2023-11-22T13:35:45;13.88;;;10.20;;
51764;SDS011;37835;53.256;6.456;2023-11-22T13:38:12;16.55;;;10.73;;
51764;SDS011;37835;53.256;6.456;2023-11-22T13:40:38;14.43;;;10.70;;
51764;SDS011;37835;53.256;6.456;2023-11-22T13:43:05;12.20;;;10.02;;
51764;SDS011;37835;53.256;6.456;2023-11-22T13:45:32;14.80;;;11.27;;
51764;SDS011;37835;53.256;6.456;2023-11-22T13:48:00;16.23;;;10.73;;
51764;SDS011;37835;53.256;6.456;2023-11-22T13:50:29;20.15;;;11.77;;
51764;SDS011;37835;53.256;6.456;2023-11-22T13:52:55;14.27;;;10.65;;
51764;SDS011;37835;53.256;6.456;2023-11-22T13:55:22;14.48;;;11.00;;
51764;SDS011;37835;53.256;6.456;2023-11-22T13:57:55;18.75;;;11.85;;
51764;SDS011;37835;53.256;6.456;2023-11-22T14:00:22;15.90;;;11.20;;
51764;SDS011;37835;53.256;6.456;2023-11-22T14:02:52;14.68;;;11.55;;
51764;SDS011;37835;53.256;6.456;2023-11-22T14:05:22;15.77;;;11.50;;
51764;SDS011;37835;53.256;6.456;2023-11-22T14:07:48;16.00;;;11.52;;
51764;SDS011;37835;53.256;6.456;2023-11-22T14:10:14;16.00;;;12.00;;
51764;SDS011;37835;53.256;6.456;2023-11-22T14:12:41;15.27;;;11.68;;
51764;SDS011;37835;53.256;6.456;2023-11-22T14:15:07;16.48;;;11.98;;
51764;SDS011;37835;53.256;6.456;2023-11-22T14:17:34;15.57;;;11.30;;
51764;SDS011;37835;53.256;6.456;2023-11-22T14:20:00;15.95;;;12.05;;
51764;SDS011;37835;53.256;6.456;2023-11-22T14:22:26;15.23;;;12.00;;